Time;durP1;ratioP1;P1;durP2;ratioP2;P2;SDS_P1;SDS_P2;PMS_P1;PMS_P2;Temp;Humidity;BMP_temperature;BMP_pressure;BME280_temperature;BME280_humidity;BME280_pressure;Samples;Min_cycle;Max_cycle;Signal;HPM_P1;HPM_P2
2024/01/30 00:01:26;;;;;;;9.15;5.00;;;;;;;3.62;100.00;101954.97;5183998;28;20284;-72
2024/01/30 00:03:56;;;;;;;10.75;5.53;;;;;;;3.67;100.00;101958.53;5197114;28;20025;-72
2024/01/30 00:06:27;;;;;;;12.98;5.72;;;;;;;3.60;100.00;101955.81;5193267;28;20029;-72
2024/01/30 00:08:58;;;;;;;9.95;5.28;;;;;;;3.54;100.00;101960.03;5198309;28;20060;-72
2024/01/30 00:11:28;;;;;;;10.13;5.40;;;;;;;3.53;100.00;101956.56;5197716;28;20040;-72
2024/01/30 00:13:59;;;;;;;10.82;5.57;;;;;;;3.49;100.00;101951.31;5194078;28;20025;-71
2024/01/30 00:16:29;;;;;;;9.63;5.35;;;;;;;3.48;100.00;101954.75;5190879;28;20129;-72
2024/01/30 00:19:02;;;;;;;8.20;4.82;;;;;;;3.39;100.00;101949.47;5195531;28;20535;-72
2024/01/30 00:21:32;;;;;;;11.30;5.78;;;;;;;3.31;100.00;101951.03;5197894;28;20391;-72
2024/01/30 00:24:02;;;;;;;9.13;5.18;;;;;;;3.43;100.00;101951.22;5198011;28;20029;-72
2024/01/30 00:26:33;;;;;;;9.60;5.68;;;;;;;3.45;100.00;101944.38;5197458;28;20380;-72
2024/01/30 00:29:03;;;;;;;14.40;5.82;;;;;;;3.47;100.00;101945.25;5198507;28;20063;-72
2024/01/30 00:31:35;;;;;;;13.45;6.03;;;;;;;3.51;100.00;101944.50;5186555;28;20026;-72
2024/01/30 00:34:05;;;;;;;11.35;5.72;;;;;;;3.56;100.00;101938.50;5196683;28;20052;-71
2024/01/30 00:36:37;;;;;;;11.35;5.80;;;;;;;3.46;100.00;101939.25;5195587;28;20021;-72
2024/01/30 00:39:09;;;;;;;12.25;6.55;;;;;;;3.53;100.00;101937.63;5196148;28;20116;-72
2024/01/30 00:41:39;;;;;;;13.80;6.93;;;;;;;3.43;100.00;101935.72;5196978;28;20109;-72
2024/01/30 00:44:09;;;;;;;12.95;6.03;;;;;;;3.46;100.00;101934.06;5189681;28;20091;-71
2024/01/30 00:46:39;;;;;;;11.63;6.15;;;;;;;3.32;100.00;101942.44;5192176;28;20038;-72
2024/01/30 00:49:10;;;;;;;10.50;5.40;;;;;;;3.31;100.00;101948.44;5196204;28;20112;-72
2024/01/30 00:51:40;;;;;;;11.05;5.07;;;;;;;3.38;100.00;101937.38;5197305;28;20029;-72
2024/01/30 00:54:11;;;;;;;12.05;6.00;;;;;;;3.35;100.00;101938.19;5197957;28;20470;-72
2024/01/30 00:56:41;;;;;;;10.40;5.72;;;;;;;3.35;100.00;101937.34;5196762;28;20510;-72
2024/01/30 00:59:11;;;;;;;10.57;4.90;;;;;;;3.32;100.00;101945.03;5197921;28;20079;-72
2024/01/30 01:01:42;;;;;;;11.75;5.55;;;;;;;3.36;100.00;101939.94;5186208;28;20033;-72
2024/01/30 01:04:12;;;;;;;10.25;5.32;;;;;;;3.40;100.00;101940.88;5192740;28;20021;-72
2024/01/30 01:06:43;;;;;;;14.40;5.55;;;;;;;3.45;100.00;101941.78;5186120;28;20029;-72
2024/01/30 01:09:14;;;;;;;11.32;6.10;;;;;;;3.50;100.00;101942.75;5189993;28;20576;-72
2024/01/30 01:11:44;;;;;;;10.15;5.85;;;;;;;3.52;100.00;101943.63;5197794;28;20088;-72
2024/01/30 01:14:14;;;;;;;10.65;5.45;;;;;;;3.52;100.00;101952.25;5186377;28;20120;-70
2024/01/30 01:16:45;;;;;;;11.80;5.38;;;;;;;3.52;100.00;101953.97;5195481;28;20055;-72
2024/01/30 01:19:15;;;;;;;10.10;5.47;;;;;;;3.54;100.00;101944.53;5195768;28;20025;-70
2024/01/30 01:21:45;;;;;;;11.18;5.60;;;;;;;3.57;100.00;101952.31;5195888;28;20044;-72
2024/01/30 01:24:16;;;;;;;10.63;5.55;;;;;;;3.51;100.00;101955.69;5191747;28;20108;-71
2024/01/30 01:26:46;;;;;;;10.20;5.10;;;;;;;3.48;100.00;101952.16;5196761;28;20033;-72
2024/01/30 01:29:16;;;;;;;10.55;5.50;;;;;;;3.38;100.00;101955.47;5196675;28;20141;-70
2024/01/30 01:31:46;;;;;;;12.93;5.70;;;;;;;3.36;100.00;101950.28;5186486;28;20033;-72
2024/01/30 01:34:17;;;;;;;17.52;5.47;;;;;;;3.38;100.00;101947.72;5194896;28;20025;-72
2024/01/30 01:36:47;;;;;;;10.75;5.55;;;;;;;3.50;100.00;101947.91;5193959;28;20025;-72
2024/01/30 01:39:17;;;;;;;11.15;5.55;;;;;;;3.41;100.00;101940.91;5195365;28;20026;-71
2024/01/30 01:41:48;;;;;;;9.93;5.25;;;;;;;3.38;100.00;101942.56;5197090;28;20099;-72
2024/01/30 01:44:18;;;;;;;9.32;5.40;;;;;;;3.36;100.00;101944.25;5196652;28;20112;-71
2024/01/30 01:46:49;;;;;;;10.70;6.00;;;;;;;3.35;100.00;101939.94;5195055;28;20061;-72
2024/01/30 01:49:20;;;;;;;9.70;5.15;;;;;;;3.33;100.00;101939.91;5186867;28;20251;-70
2024/01/30 01:51:53;;;;;;;12.15;5.28;;;;;;;3.33;100.00;101939.91;5194960;28;20604;-72
2024/01/30 01:54:25;;;;;;;11.63;6.03;;;;;;;3.24;100.00;101938.88;5195671;28;20446;-71
2024/01/30 01:56:55;;;;;;;12.93;5.88;;;;;;;3.31;100.00;101933.84;5194436;28;20036;-72
2024/01/30 01:59:27;;;;;;;8.30;5.47;;;;;;;3.26;100.00;101926.84;5194701;28;20483;-72
2024/01/30 02:01:57;;;;;;;10.43;5.57;;;;;;;3.10;100.00;101932.63;5186934;28;20084;-72
2024/01/30 02:04:27;;;;;;;11.27;5.47;;;;;;;3.07;100.00;101932.59;5193135;28;20554;-72
2024/01/30 02:06:58;;;;;;;9.90;5.47;;;;;;;3.08;100.00;101927.47;5193814;28;20025;-73
2024/01/30 02:09:28;;;;;;;10.10;5.50;;;;;;;3.09;100.00;101924.03;5196340;28;20075;-72
2024/01/30 02:11:59;;;;;;;12.80;5.93;;;;;;;3.13;100.00;101924.91;5197102;28;20072;-72
2024/01/30 02:14:29;;;;;;;10.15;5.35;;;;;;;3.17;100.00;101921.56;5189157;28;20022;-72
2024/01/30 02:16:59;;;;;;;10.25;5.25;;;;;;;3.13;100.00;101924.91;5194282;28;20082;-73
2024/01/30 02:19:29;;;;;;;9.85;4.97;;;;;;;3.15;100.00;101918.06;5194843;28;20017;-73
2024/01/30 02:22:00;;;;;;;10.40;5.80;;;;;;;3.22;100.00;101914.75;5198063;28;20441;-72
2024/01/30 02:24:30;;;;;;;11.55;6.05;;;;;;;3.25;100.00;101912.22;5200115;28;20036;-72
2024/01/30 02:27:00;;;;;;;11.43;5.63;;;;;;;3.30;100.00;101911.44;5199921;28;20064;-72
2024/01/30 02:29:30;;;;;;;10.88;5.95;;;;;;;3.37;100.00;101909.81;5200190;28;20025;-72
2024/01/30 02:32:01;;;;;;;9.48;5.60;;;;;;;3.28;100.00;101909.66;5191378;28;20064;-72
2024/01/30 02:34:31;;;;;;;10.02;5.55;;;;;;;3.39;100.00;101921.88;5198791;28;20048;-72
2024/01/30 02:37:02;;;;;;;10.90;5.72;;;;;;;3.45;100.00;101908.19;5198138;28;20075;-72
2024/01/30 02:39:32;;;;;;;13.90;5.72;;;;;;;3.44;100.00;101906.47;5195961;28;20055;-72
2024/01/30 02:42:02;;;;;;;12.05;5.25;;;;;;;3.48;100.00;101903.94;5200234;28;20061;-72
2024/01/30 02:44:33;;;;;;;11.85;5.85;;;;;;;3.53;100.00;101897.13;5200895;28;20029;-73
2024/01/30 02:47:03;;;;;;;10.27;5.50;;;;;;;3.43;100.00;101894.41;5188403;28;20399;-73
2024/01/30 02:49:33;;;;;;;10.77;5.75;;;;;;;3.29;100.00;101891.63;5197410;28;20271;-72
2024/01/30 02:52:04;;;;;;;13.82;5.57;;;;;;;3.31;100.00;101894.22;5198845;28;20037;-72
2024/01/30 02:54:34;;;;;;;10.57;5.78;;;;;;;3.24;100.00;101897.56;5197580;28;20027;-72
2024/01/30 02:57:04;;;;;;;12.60;5.88;;;;;;;3.09;100.00;101892.16;5199748;28;20121;-72
2024/01/30 02:59:35;;;;;;;14.43;6.25;;;;;;;3.19;100.00;101894.03;5188961;28;20022;-72
2024/01/30 03:02:06;;;;;;;10.50;6.00;;;;;;;3.15;100.00;101897.41;5196127;28;20032;-71
2024/01/30 03:04:36;;;;;;;13.10;5.95;;;;;;;3.14;100.00;101890.50;5199300;28;20045;-73
2024/01/30 03:07:06;;;;;;;13.88;5.57;;;;;;;3.34;100.00;101892.53;5194696;28;20026;-71
2024/01/30 03:09:36;;;;;;;11.40;5.68;;;;;;;3.42;100.00;101883.22;5197393;28;20979;-72
2024/01/30 03:12:07;;;;;;;12.23;5.63;;;;;;;3.37;100.00;101889.16;5199029;28;20032;-72
2024/01/30 03:14:37;;;;;;;10.48;5.68;;;;;;;3.03;100.00;101881.75;5198990;28;20072;-72
2024/01/30 03:17:07;;;;;;;9.55;5.55;;;;;;;3.05;100.00;101890.38;5188292;28;20108;-71
2024/01/30 03:19:38;;;;;;;9.50;5.85;;;;;;;3.02;100.00;101890.34;5196231;28;20033;-72
2024/01/30 03:22:08;;;;;;;10.98;5.72;;;;;;;2.93;100.00;101896.22;5199505;28;20471;-72
2024/01/30 03:24:38;;;;;;;11.85;6.40;;;;;;;2.99;100.00;101885.13;5196099;28;20037;-72
2024/01/30 03:27:09;;;;;;;10.13;5.93;;;;;;;3.07;100.00;101878.34;5198069;28;20522;-72
2024/01/30 03:29:39;;;;;;;13.63;6.72;;;;;;;3.12;100.00;101882.75;5198615;28;20120;-72
2024/01/30 03:32:09;;;;;;;10.82;6.13;;;;;;;3.12;100.00;101882.75;5189873;28;20130;-72
2024/01/30 03:34:40;;;;;;;9.43;6.03;;;;;;;3.06;100.00;101879.19;5197587;28;20724;-72
2024/01/30 03:37:10;;;;;;;14.40;6.80;;;;;;;2.97;100.00;101877.34;5196235;28;20398;-72
2024/01/30 03:39:40;;;;;;;12.35;6.40;;;;;;;3.00;100.00;101881.69;5197270;28;20021;-73
2024/01/30 03:42:10;;;;;;;13.43;6.28;;;;;;;3.11;100.00;101878.44;5199786;28;20135;-72
2024/01/30 03:44:41;;;;;;;12.32;6.13;;;;;;;3.07;100.00;101876.66;5198370;28;20037;-72
2024/01/30 03:47:11;;;;;;;12.60;6.47;;;;;;;3.09;100.00;101877.53;5197870;28;20029;-72
2024/01/30 03:49:41;;;;;;;12.35;6.38;;;;;;;2.96;100.00;101872.16;5186765;28;20030;-72
2024/01/30 03:52:12;;;;;;;12.88;6.25;;;;;;;2.88;100.00;101876.34;5196161;28;20041;-72
2024/01/30 03:54:42;;;;;;;14.02;6.38;;;;;;;2.88;100.00;101873.75;5196524;28;20029;-72
2024/01/30 03:57:12;;;;;;;12.20;6.15;;;;;;;2.81;100.00;101874.47;5198811;28;20095;-72
2024/01/30 03:59:43;;;;;;;11.55;6.22;;;;;;;2.80;100.00;101875.31;5186647;28;20029;-72
2024/01/30 04:02:13;;;;;;;12.73;6.93;;;;;;;2.74;100.00;101868.38;5196203;28;20083;-72
2024/01/30 04:04:43;;;;;;;12.82;6.60;;;;;;;2.71;100.00;101870.88;5195202;28;20044;-72
2024/01/30 04:07:14;;;;;;;10.38;5.78;;;;;;;2.78;100.00;101864.09;5198519;28;20060;-73
2024/01/30 04:09:44;;;;;;;13.95;7.38;;;;;;;2.82;100.00;101865.91;5198131;28;20491;-72
2024/01/30 04:12:14;;;;;;;14.45;6.45;;;;;;;2.81;100.00;101859.00;5198937;28;20022;-72
2024/01/30 04:14:44;;;;;;;13.52;6.60;;;;;;;2.85;100.00;101863.38;5187323;28;20486;-72
2024/01/30 04:17:15;;;;;;;15.00;7.28;;;;;;;2.84;100.00;101859.06;5194197;28;20030;-72
2024/01/30 04:19:46;;;;;;;16.88;7.78;;;;;;;2.98;100.00;101860.13;5196525;28;20053;-72
2024/01/30 04:22:16;;;;;;;10.57;6.05;;;;;;;3.09;100.00;101861.16;5197308;28;20280;-73
2024/01/30 04:24:47;;;;;;;11.93;7.03;;;;;;;3.22;100.00;101851.03;5197814;28;20029;-72
2024/01/30 04:27:17;;;;;;;14.45;6.78;;;;;;;3.15;100.00;101849.22;5198683;28;20378;-73
2024/01/30 04:29:47;;;;;;;11.50;6.45;;;;;;;3.29;100.00;101855.47;5188103;28;20085;-73
2024/01/30 04:32:17;;;;;;;10.57;6.20;;;;;;;3.25;100.00;101850.22;5197320;28;20033;-72
2024/01/30 04:34:48;;;;;;;9.80;6.03;;;;;;;3.32;100.00;101852.03;5197368;28;20434;-72
2024/01/30 04:37:18;;;;;;;13.55;7.20;;;;;;;3.15;100.00;101856.97;5196800;28;20305;-73
2024/01/30 04:39:48;;;;;;;13.63;7.00;;;;;;;3.11;100.00;101849.16;5195114;28;20029;-72
2024/01/30 04:42:19;;;;;;;12.77;6.78;;;;;;;2.92;100.00;101854.88;5195091;28;20048;-72
2024/01/30 04:44:49;;;;;;;12.75;7.15;;;;;;;2.94;100.00;101858.34;5193872;28;20029;-72
2024/01/30 04:47:20;;;;;;;14.05;7.03;;;;;;;2.96;100.00;101848.91;5194004;28;20044;-72
2024/01/30 04:49:51;;;;;;;13.88;7.57;;;;;;;2.96;100.00;101854.06;5195678;28;20300;-72
2024/01/30 04:52:21;;;;;;;12.35;6.78;;;;;;;3.09;100.00;101856.88;5196124;28;20059;-73
2024/01/30 04:54:52;;;;;;;14.35;7.28;;;;;;;3.04;100.00;101857.66;5197470;28;20467;-72
2024/01/30 04:57:22;;;;;;;11.68;6.57;;;;;;;3.17;100.00;101857.00;5194310;28;20033;-72
2024/01/30 04:59:52;;;;;;;13.02;6.47;;;;;;;2.99;100.00;101859.31;5187377;28;20406;-72
2024/01/30 05:02:23;;;;;;;14.98;6.97;;;;;;;2.99;100.00;101848.97;5195133;28;20033;-72
2024/01/30 05:04:53;;;;;;;17.10;7.32;;;;;;;3.07;100.00;101856.00;5194806;28;20491;-72
2024/01/30 05:07:24;;;;;;;13.77;6.90;;;;;;;3.07;100.00;101858.59;5195534;28;20029;-72
2024/01/30 05:09:55;;;;;;;12.50;6.47;;;;;;;3.10;100.00;101856.03;5195769;28;20044;-72
2024/01/30 05:12:25;;;;;;;13.57;7.32;;;;;;;3.15;100.00;101850.91;5197466;28;20021;-72
2024/01/30 05:14:55;;;;;;;12.98;6.85;;;;;;;3.28;100.00;101852.84;5194505;28;20574;-72
2024/01/30 05:17:26;;;;;;;12.70;6.70;;;;;;;3.20;100.00;101850.16;5192483;28;20025;-72
2024/01/30 05:19:56;;;;;;;11.75;6.63;;;;;;;3.16;100.00;101852.69;5195304;28;20527;-72
2024/01/30 05:22:26;;;;;;;14.20;6.97;;;;;;;3.12;100.00;101861.22;5197004;28;20499;-72
2024/01/30 05:24:56;;;;;;;12.88;6.47;;;;;;;3.13;100.00;101857.78;5196945;28;20030;-72
2024/01/30 05:27:27;;;;;;;12.38;6.95;;;;;;;3.10;100.00;101857.75;5197125;28;20376;-72
2024/01/30 05:29:57;;;;;;;11.30;6.47;;;;;;;3.07;100.00;101845.66;5197013;28;20033;-72
2024/01/30 05:32:27;;;;;;;12.80;6.68;;;;;;;3.19;100.00;101837.22;5196605;28;20111;-72
2024/01/30 05:34:58;;;;;;;13.77;7.05;;;;;;;3.07;100.00;101849.94;5195414;28;20594;-73
2024/01/30 05:37:28;;;;;;;11.88;6.40;;;;;;;3.04;100.00;101843.00;5196968;28;20032;-73
2024/01/30 05:39:58;;;;;;;11.23;6.55;;;;;;;3.07;100.00;101842.22;5196676;28;20220;-72
2024/01/30 05:42:29;;;;;;;12.75;7.38;;;;;;;3.02;100.00;101849.03;5196358;28;20288;-72
2024/01/30 05:44:59;;;;;;;14.50;7.30;;;;;;;3.03;100.00;101850.75;5196832;28;20037;-73
2024/01/30 05:47:29;;;;;;;10.93;6.15;;;;;;;3.09;100.00;101853.41;5195286;28;20091;-72
2024/01/30 05:49:59;;;;;;;10.10;6.22;;;;;;;3.12;100.00;101854.34;5195586;28;20133;-72
2024/01/30 05:52:30;;;;;;;11.18;6.47;;;;;;;3.12;100.00;101846.59;5195604;28;20025;-72
2024/01/30 05:55:00;;;;;;;16.00;7.00;;;;;;;3.15;100.00;101845.75;5194935;28;20025;-72
2024/01/30 05:57:30;;;;;;;13.63;6.95;;;;;;;3.12;100.00;101845.72;5200983;28;20437;-73
2024/01/30 06:00:01;;;;;;;13.73;6.85;;;;;;;3.14;100.00;101838.84;5203246;28;20402;-72
2024/01/30 06:02:31;;;;;;;13.73;6.70;;;;;;;3.19;100.00;101843.25;5204084;28;20040;-72
2024/01/30 06:05:02;;;;;;;13.40;6.55;;;;;;;3.17;100.00;101838.94;5203127;28;20029;-72
2024/01/30 06:07:32;;;;;;;11.82;6.43;;;;;;;2.97;100.00;101842.91;5203079;28;20032;-72
2024/01/30 06:10:03;;;;;;;13.20;6.15;;;;;;;2.97;100.00;101840.31;5202818;28;20025;-72
2024/01/30 06:12:33;;;;;;;12.10;6.60;;;;;;;2.92;100.00;101839.38;5203768;28;20041;-73
2024/01/30 06:15:04;;;;;;;11.43;6.55;;;;;;;2.90;100.00;101838.50;5200637;28;20030;-72
2024/01/30 06:17:34;;;;;;;13.20;6.70;;;;;;;2.97;100.00;101838.63;5202881;28;20032;-73
2024/01/30 06:20:06;;;;;;;13.43;6.93;;;;;;;2.88;100.00;101845.34;5203282;28;20115;-72
2024/01/30 06:22:37;;;;;;;12.95;7.30;;;;;;;2.89;100.00;101836.75;5203647;28;20094;-73
2024/01/30 06:25:07;;;;;;;12.70;7.05;;;;;;;2.86;100.00;101841.88;5202996;28;20108;-71
2024/01/30 06:27:38;;;;;;;12.90;7.35;;;;;;;2.87;100.00;101833.28;5203035;28;20033;-73
2024/01/30 06:30:08;;;;;;;13.45;7.18;;;;;;;2.86;100.00;101836.72;5203393;28;20029;-72
2024/01/30 06:32:39;;;;;;;10.63;6.30;;;;;;;2.87;100.00;101833.28;5203576;28;20034;-73
2024/01/30 06:35:10;;;;;;;14.60;7.60;;;;;;;2.87;100.00;101843.63;5203176;28;20029;-72
2024/01/30 06:37:40;;;;;;;14.18;7.30;;;;;;;2.78;100.00;101838.31;5202845;28;20033;-73
2024/01/30 06:40:11;;;;;;;13.23;7.32;;;;;;;2.83;100.00;101831.53;5200917;28;20035;-72
2024/01/30 06:42:41;;;;;;;12.50;7.53;;;;;;;2.87;100.00;101833.28;5203135;28;20052;-73
2024/01/30 06:45:12;;;;;;;14.63;7.38;;;;;;;3.00;100.00;101830.06;5201818;28;20026;-72
2024/01/30 06:47:42;;;;;;;13.13;7.65;;;;;;;2.97;100.00;101832.56;5201611;28;20032;-72
2024/01/30 06:50:12;;;;;;;17.58;7.60;;;;;;;3.07;100.00;101835.34;5195434;28;20271;-72
2024/01/30 06:52:43;;;;;;;12.38;7.47;;;;;;;3.19;100.00;101830.34;5200163;28;20044;-72
2024/01/30 06:55:13;;;;;;;14.68;7.45;;;;;;;3.07;100.00;101837.94;5200971;28;20041;-72
2024/01/30 06:57:43;;;;;;;13.73;7.30;;;;;;;3.05;100.00;101833.56;5199209;28;20124;-72
2024/01/30 07:00:15;;;;;;;12.50;7.15;;;;;;;3.02;100.00;101838.69;5202209;28;20383;-73
2024/01/30 07:02:45;;;;;;;14.60;7.70;;;;;;;3.06;100.00;101836.16;5202715;28;20509;-72
2024/01/30 07:05:17;;;;;;;15.98;7.47;;;;;;;2.99;100.00;101843.81;5202910;28;20025;-72
2024/01/30 07:07:47;;;;;;;14.85;7.40;;;;;;;2.96;100.00;101833.41;5200530;28;20240;-72
2024/01/30 07:10:18;;;;;;;15.20;7.55;;;;;;;3.11;100.00;101838.81;5198440;28;20025;-72
2024/01/30 07:12:48;;;;;;;14.27;7.03;;;;;;;3.08;100.00;101829.34;5198945;28;20025;-72
2024/01/30 07:15:20;;;;;;;11.57;7.05;;;;;;;3.19;100.00;101824.31;5199995;28;20028;-72
2024/01/30 07:17:50;;;;;;;15.45;7.60;;;;;;;3.17;100.00;101826.00;5192524;28;20117;-72
2024/01/30 07:20:20;;;;;;;12.18;7.07;;;;;;;3.24;100.00;101826.13;5197910;28;20022;-72
2024/01/30 07:22:51;;;;;;;14.15;7.22;;;;;;;3.26;100.00;101828.72;5196461;28;20025;-72
2024/01/30 07:25:26;;;;;;;14.68;6.82;;;;;;;3.23;100.00;101818.34;5196309;28;20029;-72
2024/01/30 07:27:57;;;;;;;11.45;6.40;;;;;;;3.15;100.00;101822.50;5196158;28;20383;-72
2024/01/30 07:30:27;;;;;;;13.38;6.95;;;;;;;3.16;100.00;101824.28;5197516;28;20034;-73
2024/01/30 07:32:57;;;;;;;11.05;6.28;;;;;;;3.11;100.00;101824.19;5195192;28;20029;-72
2024/01/30 07:35:28;;;;;;;11.98;6.70;;;;;;;3.16;100.00;101822.53;5199083;28;20108;-72
2024/01/30 07:37:58;;;;;;;10.90;6.82;;;;;;;3.37;100.00;101817.66;5198787;28;20025;-73
2024/01/30 07:40:28;;;;;;;14.13;6.63;;;;;;;3.44;100.00;101818.63;5197488;28;20049;-72
2024/01/30 07:42:59;;;;;;;12.95;6.68;;;;;;;3.47;100.00;101816.06;5196304;28;20021;-73
2024/01/30 07:45:33;;;;;;;12.15;6.82;;;;;;;3.50;100.00;101819.56;5198940;28;20491;-73
2024/01/30 07:48:04;;;;;;;10.32;6.25;;;;;;;3.53;100.00;101819.59;5198262;28;20056;-72
2024/01/30 07:50:35;;;;;;;12.10;6.72;;;;;;;3.57;100.00;101818.78;5197018;28;20033;-72
2024/01/30 07:53:05;;;;;;;11.32;5.75;;;;;;;3.72;100.00;101824.13;5197535;28;20184;-72
2024/01/30 07:55:35;;;;;;;15.10;7.40;;;;;;;3.86;100.00;101826.06;5199022;28;20056;-72
2024/01/30 08:01:32;;;;;;;12.98;7.13;;;;;;;4.45;100.00;101824.09;5199062;28;20040;-73
2024/01/30 08:04:03;;;;;;;11.35;6.38;;;;;;;4.74;100.00;101823.47;5196265;28;20033;-73
2024/01/30 08:06:33;;;;;;;11.68;6.40;;;;;;;4.94;100.00;101826.22;5195080;28;20048;-72
2024/01/30 08:09:04;;;;;;;12.02;6.38;;;;;;;4.92;100.00;101818.41;5199017;28;20091;-72
2024/01/30 08:11:35;;;;;;;13.23;6.25;;;;;;;4.94;100.00;101821.88;5199280;28;20018;-73
2024/01/30 08:14:05;;;;;;;12.57;6.38;;;;;;;5.32;100.00;101822.13;5198900;28;20021;-73
2024/01/30 08:16:35;;;;;;;10.63;6.28;;;;;;;5.16;100.00;101822.91;5195000;28;20502;-73
2024/01/30 08:19:06;;;;;;;11.57;5.93;;;;;;;5.12;100.00;101810.78;5196207;28;20037;-73
2024/01/30 08:21:36;;;;;;;10.02;6.07;;;;;;;5.18;100.00;101816.00;5198902;28;20041;-74
2024/01/30 08:24:07;;;;;;;10.10;6.30;;;;;;;5.41;99.26;101810.94;5199610;28;20029;-74
2024/01/30 08:26:37;;;;;;;10.57;6.00;;;;;;;5.48;100.00;101812.72;5198625;28;20040;-74
2024/01/30 08:29:07;;;;;;;14.55;6.90;;;;;;;5.35;99.26;101815.22;5197857;28;20490;-74
2024/01/30 08:31:38;;;;;;;14.23;6.45;;;;;;;5.44;99.94;101807.50;5198508;28;20373;-74
2024/01/30 08:34:08;;;;;;;12.10;6.07;;;;;;;5.80;99.27;101820.66;5199212;28;20220;-74
2024/01/30 08:36:38;;;;;;;12.10;6.20;;;;;;;5.92;96.91;101815.50;5199014;28;20299;-74
2024/01/30 08:39:09;;;;;;;13.27;6.60;;;;;;;5.86;97.57;101820.66;5198615;28;20021;-73
2024/01/30 08:41:39;;;;;;;11.70;6.50;;;;;;;5.67;97.08;101813.66;5197320;28;20025;-74
2024/01/30 08:44:11;;;;;;;14.55;6.75;;;;;;;5.99;98.02;101806.88;5197965;28;20506;-74
2024/01/30 08:46:42;;;;;;;11.15;6.50;;;;;;;6.07;97.75;101806.03;5198730;28;20037;-74
2024/01/30 08:49:13;;;;;;;10.82;6.15;;;;;;;6.03;96.43;101813.78;5195233;28;20021;-74
2024/01/30 08:51:43;;;;;;;11.50;6.10;;;;;;;6.17;98.42;101804.31;5197431;28;20045;-74
2024/01/30 08:54:14;;;;;;;13.07;6.07;;;;;;;6.10;98.03;101811.22;5198413;28;20071;-74
2024/01/30 08:56:44;;;;;;;13.52;6.10;;;;;;;6.34;97.55;101810.41;5196693;28;20037;-74
2024/01/30 08:59:14;;;;;;;9.98;5.97;;;;;;;6.27;96.57;101809.53;5197902;28;20775;-74
2024/01/30 09:01:46;;;;;;;15.18;6.05;;;;;;;6.12;97.73;101806.03;5198264;28;20021;-73
2024/01/30 09:04:17;;;;;;;13.50;6.78;;;;;;;6.29;98.28;101806.94;5198493;28;20029;-75
2024/01/30 09:06:48;;;;;;;11.23;6.15;;;;;;;6.19;98.68;101807.78;5197851;28;20394;-74
2024/01/30 09:09:19;;;;;;;10.07;6.20;;;;;;;6.13;97.40;101807.78;5196659;28;20034;-74
2024/01/30 09:11:49;;;;;;;11.40;6.03;;;;;;;6.24;98.85;101806.09;5197144;28;20521;-74
2024/01/30 09:14:19;;;;;;;11.93;6.45;;;;;;;6.28;99.50;101806.06;5195333;28;20064;-74
2024/01/30 09:16:50;;;;;;;13.55;6.82;;;;;;;6.16;98.11;101795.69;5196466;28;20449;-74
2024/01/30 09:19:20;;;;;;;12.02;6.25;;;;;;;6.12;99.64;101804.31;5196874;28;20092;-73
2024/01/30 09:21:50;;;;;;;13.50;7.03;;;;;;;6.14;100.00;101793.94;5197651;28;20128;-74
2024/01/30 09:24:21;;;;;;;12.18;6.53;;;;;;;6.04;100.00;101798.25;5195887;28;20029;-73
2024/01/30 09:26:51;;;;;;;10.85;6.25;;;;;;;6.09;100.00;101798.25;5197269;28;20041;-74
2024/01/30 09:29:21;;;;;;;15.82;7.22;;;;;;;6.28;100.00;101797.44;5197608;28;20029;-74
2024/01/30 09:31:52;;;;;;;10.38;6.75;;;;;;;6.27;100.00;101803.47;5196627;28;20018;-74
2024/01/30 09:34:22;;;;;;;11.05;6.57;;;;;;;6.35;100.00;101801.75;5197597;28;20025;-74
2024/01/30 09:36:52;;;;;;;12.02;6.57;;;;;;;6.39;100.00;101803.50;5197246;28;20090;-74
2024/01/30 09:39:22;;;;;;;14.57;6.57;;;;;;;6.48;100.00;101803.50;5197426;28;20382;-74
2024/01/30 09:42:19;;;;;;;11.82;6.60;;;;;;;6.69;100.00;101803.50;5197293;28;20064;-74
2024/01/30 09:44:52;;;;;;;11.18;6.28;;;;;;;6.53;100.00;101797.44;5197071;28;20502;-74
2024/01/30 09:47:22;;;;;;;11.32;6.50;;;;;;;6.57;100.00;101800.91;5197302;28;20053;-74
2024/01/30 09:49:53;;;;;;;11.13;6.45;;;;;;;6.70;100.00;101789.63;5197724;28;20537;-74
2024/01/30 09:52:23;;;;;;;15.20;7.22;;;;;;;6.81;100.00;101793.97;5196870;28;20108;-74
2024/01/30 09:54:53;;;;;;;16.38;7.38;;;;;;;6.97;100.00;101798.25;5194801;28;20108;-74
2024/01/30 09:57:26;;;;;;;10.85;6.03;;;;;;;7.04;100.00;101791.31;5195116;28;20152;-74
2024/01/30 09:59:56;;;;;;;13.73;6.43;;;;;;;7.10;100.00;101786.13;5195212;28;20025;-74
2024/01/30 10:02:27;;;;;;;11.63;7.10;;;;;;;7.27;100.00;101781.75;5196645;28;20514;-74
2024/01/30 10:04:57;;;;;;;11.57;6.78;;;;;;;7.60;100.00;101785.97;5197561;28;20025;-74
2024/01/30 10:07:28;;;;;;;9.70;6.30;;;;;;;7.72;99.66;101778.09;5194853;28;20033;-74
2024/01/30 10:09:59;;;;;;;12.95;6.80;;;;;;;7.78;99.40;101783.28;5195046;28;20077;-74
2024/01/30 10:12:30;;;;;;;14.75;6.32;;;;;;;7.89;100.00;101773.66;5195245;28;20102;-74
2024/01/30 10:15:00;;;;;;;9.48;6.30;;;;;;;8.11;99.62;101774.41;5197217;28;20080;-74
2024/01/30 10:17:30;;;;;;;11.32;6.40;;;;;;;8.04;98.51;101772.72;5192799;28;20104;-74
2024/01/30 10:20:04;;;;;;;11.05;5.78;;;;;;;8.09;99.25;101771.84;5193517;28;20327;-74
2024/01/30 10:22:35;;;;;;;14.05;6.40;;;;;;;8.00;98.91;101768.38;5196685;28;20602;-74
2024/01/30 10:25:06;;;;;;;12.55;6.85;;;;;;;8.13;98.29;101763.13;5196966;28;20032;-74
2024/01/30 10:27:36;;;;;;;11.70;6.85;;;;;;;8.17;97.86;101759.59;5194839;28;20029;-74
2024/01/30 10:30:07;;;;;;;16.95;7.05;;;;;;;8.21;98.54;101758.75;5196322;28;20546;-73
2024/01/30 10:32:38;;;;;;;11.32;6.75;;;;;;;8.16;100.00;101757.88;5197092;28;20659;-74
2024/01/30 10:35:08;;;;;;;13.45;6.50;;;;;;;8.15;100.00;101763.09;5197135;28;20325;-73
2024/01/30 10:37:39;;;;;;;10.88;6.70;;;;;;;8.22;100.00;101763.06;5197049;28;20029;-74
2024/01/30 10:40:13;;;;;;;16.90;8.68;;;;;;;8.25;100.00;101757.84;5196343;28;20025;-74
2024/01/30 10:42:44;;;;;;;10.90;6.28;;;;;;;8.39;100.00;101753.38;5198070;28;20045;-74
2024/01/30 10:45:18;;;;;;;10.80;6.45;;;;;;;8.60;100.00;101752.34;5200115;28;20034;-74
2024/01/30 10:47:50;;;;;;;13.18;6.25;;;;;;;8.60;99.32;101753.25;5198571;28;20063;-74
2024/01/30 10:50:23;;;;;;;11.55;6.90;;;;;;;8.60;99.95;101753.25;5198868;28;20025;-74
2024/01/30 10:52:55;;;;;;;12.18;6.38;;;;;;;8.50;100.00;101756.78;5201096;28;20258;-74
2024/01/30 10:55:28;;;;;;;14.63;6.45;;;;;;;8.61;100.00;101757.56;5197816;28;20025;-74
2024/01/30 10:58:00;;;;;;;13.00;6.30;;;;;;;8.66;100.00;101755.78;5200586;28;20024;-74
2024/01/30 11:00:33;;;;;;;11.02;6.40;;;;;;;8.66;100.00;101761.00;5200023;28;20021;-74
2024/01/30 11:03:03;;;;;;;11.60;6.22;;;;;;;8.78;100.00;101752.19;5200233;28;20635;-73
2024/01/30 11:05:34;;;;;;;9.45;5.57;;;;;;;8.89;100.00;101747.75;5195363;28;20036;-74
2024/01/30 11:08:12;;;;;;;12.23;6.82;;;;;;;9.01;100.00;101748.47;5198762;28;20462;-74
2024/01/30 11:10:46;;;;;;;12.25;6.30;;;;;;;9.10;100.00;101745.75;5200277;28;20529;-75
2024/01/30 11:13:19;;;;;;;12.23;6.43;;;;;;;9.20;100.00;101739.56;5198995;28;20125;-74
2024/01/30 11:15:49;;;;;;;10.48;5.32;;;;;;;9.38;100.00;101732.41;5200175;28;20553;-74
2024/01/30 11:18:25;;;;;;;9.63;5.25;;;;;;;9.36;100.00;101730.69;5198481;28;20033;-74
2024/01/30 11:21:00;;;;;;;10.88;5.85;;;;;;;9.37;100.00;101724.56;5197969;28;20020;-74
2024/01/30 11:23:34;;;;;;;11.07;6.00;;;;;;;9.56;100.00;101723.47;5199771;28;20029;-74
2024/01/30 11:26:05;;;;;;;10.25;6.07;;;;;;;9.64;100.00;101721.63;5199683;28;20057;-74
2024/01/30 11:28:37;;;;;;;12.85;6.50;;;;;;;9.57;100.00;101715.63;5199097;28;20117;-74
2024/01/30 11:31:08;;;;;;;10.50;6.20;;;;;;;9.58;100.00;101713.84;5200227;28;20525;-74
2024/01/30 11:33:38;;;;;;;10.55;5.90;;;;;;;9.57;100.00;101710.41;5199203;28;20068;-74
2024/01/30 11:36:11;;;;;;;10.65;6.00;;;;;;;9.61;100.00;101709.47;5199919;28;20033;-74
2024/01/30 11:38:43;;;;;;;12.77;6.68;;;;;;;9.68;100.00;101702.44;5199398;28;20083;-74